Time;durP1;ratioP1;P1;durP2;ratioP2;P2;SDS_P1;SDS_P2;PMS_P1;PMS_P2;Temp;Humidity;BMP_temperature;BMP_pressure;BME280_temperature;BME280_humidity;BME280_pressure;Samples;Min_cycle;Max_cycle;Signal;HPM_P1;HPM_P2
2021/05/20 00:01:04;;;;;;;24.85;21.27;;;9.30;84.20;;;;;;5024990;28;20042;-78
2021/05/20 00:03:30;;;;;;;24.75;20.95;;;9.30;84.30;;;;;;5036135;28;20055;-80
2021/05/20 00:05:56;;;;;;;23.25;20.75;;;9.20;84.30;;;;;;5022399;28;20042;-79
2021/05/20 00:08:22;;;;;;;24.30;21.70;;;9.20;84.20;;;;;;5027366;28;20476;-78
2021/05/20 00:10:48;;;;;;;25.05;21.63;;;9.20;84.30;;;;;;5016988;28;20037;-78
2021/05/20 00:13:13;;;;;;;23.35;20.50;;;9.20;84.30;;;;;;5020775;28;20050;-81
2021/05/20 00:15:39;;;;;;;25.70;22.63;;;9.20;84.20;;;;;;5012925;28;20519;-80
2021/05/20 00:18:05;;;;;;;25.85;22.42;;;9.10;84.20;;;;;;5029186;28;20037;-80
2021/05/20 00:20:31;;;;;;;26.17;22.63;;;9.10;84.30;;;;;;5027098;28;20033;-80
2021/05/20 00:22:57;;;;;;;28.02;24.77;;;9.10;84.20;;;;;;5021083;28;20030;-77
2021/05/20 00:25:23;;;;;;;24.85;22.13;;;9.10;84.00;;;;;;5023210;28;20072;-78
2021/05/20 00:27:48;;;;;;;23.83;21.15;;;9.00;84.30;;;;;;5016615;28;20469;-77
2021/05/20 00:30:14;;;;;;;26.00;22.98;;;9.00;84.40;;;;;;5017568;28;20380;-77
2021/05/20 00:32:40;;;;;;;26.60;23.63;;;9.00;84.60;;;;;;5022240;28;20022;-78
2021/05/20 00:35:07;;;;;;;26.65;23.50;;;9.00;84.80;;;;;;5009248;28;20034;-80
2021/05/20 00:37:33;;;;;;;24.45;21.38;;;9.00;84.60;;;;;;5019452;28;20045;-77
2021/05/20 00:39:58;;;;;;;24.13;21.45;;;8.90;84.60;;;;;;5032388;28;20022;-79
2021/05/20 00:42:24;;;;;;;24.23;21.63;;;8.90;84.50;;;;;;5008458;28;20397;-80
2021/05/20 00:44:52;;;;;;;24.95;22.25;;;8.80;84.30;;;;;;5025352;28;20140;-81
2021/05/20 00:47:30;;;;;;;24.92;21.98;;;8.80;84.50;;;;;;5015409;28;20405;-77
2021/05/20 00:49:57;;;;;;;26.90;23.00;;;8.80;84.60;;;;;;5027829;28;20040;-78
2021/05/20 00:52:23;;;;;;;24.88;22.20;;;8.70;84.60;;;;;;5039367;28;20049;-78
2021/05/20 00:54:54;;;;;;;26.27;23.13;;;8.70;84.70;;;;;;5038754;28;20037;-76
2021/05/20 00:57:21;;;;;;;27.48;23.30;;;8.70;84.80;;;;;;5039639;28;20042;-75
2021/05/20 00:59:48;;;;;;;27.23;24.35;;;8.70;84.80;;;;;;5033425;28;20451;-75
2021/05/20 01:02:13;;;;;;;27.67;23.20;;;8.70;84.70;;;;;;5034945;28;20080;-78
2021/05/20 01:04:39;;;;;;;28.48;24.30;;;8.70;84.70;;;;;;5009797;28;20086;-79
2021/05/20 01:07:05;;;;;;;29.92;24.33;;;8.70;84.70;;;;;;5010437;28;20122;-76
2021/05/20 01:09:35;;;;;;;27.83;23.80;;;8.60;84.80;;;;;;5011329;28;20079;-78
2021/05/20 01:12:05;;;;;;;28.65;23.42;;;8.60;84.70;;;;;;5016689;28;20048;-79
2021/05/20 01:14:45;;;;;;;26.58;23.05;;;8.60;84.70;;;;;;5038510;28;20055;-83
2021/05/20 01:17:12;;;;;;;27.10;23.88;;;8.60;84.80;;;;;;5024636;28;20045;-75
2021/05/20 01:19:39;;;;;;;28.35;24.58;;;8.60;84.80;;;;;;5035062;28;20422;-78
2021/05/20 01:22:06;;;;;;;29.90;24.00;;;8.60;84.90;;;;;;5026901;28;20025;-81
2021/05/20 01:24:32;;;;;;;29.23;26.00;;;8.50;85.10;;;;;;5031194;28;20085;-78
2021/05/20 01:27:01;;;;;;;28.85;25.75;;;8.50;85.20;;;;;;5032733;28;20034;-78
2021/05/20 01:29:27;;;;;;;29.75;25.67;;;8.60;85.30;;;;;;5014633;28;20060;-79
2021/05/20 01:31:52;;;;;;;30.10;26.67;;;8.50;85.50;;;;;;5024840;28;20065;-78
2021/05/20 01:34:18;;;;;;;30.02;26.48;;;8.60;85.60;;;;;;5033256;28;20041;-77
2021/05/20 01:36:43;;;;;;;33.63;28.08;;;8.60;85.80;;;;;;5019824;28;20042;-78
2021/05/20 01:39:09;;;;;;;32.30;27.55;;;8.60;85.80;;;;;;5016859;28;20086;-79
2021/05/20 01:41:35;;;;;;;31.73;27.83;;;8.60;85.90;;;;;;5022014;28;20057;-78
2021/05/20 01:44:00;;;;;;;30.52;26.55;;;8.60;86.00;;;;;;5006851;28;20049;-78
2021/05/20 01:46:26;;;;;;;33.33;27.02;;;8.60;86.20;;;;;;5004056;28;20457;-78
2021/05/20 01:48:55;;;;;;;32.55;26.27;;;8.50;86.30;;;;;;5007255;28;20022;-78
2021/05/20 01:51:22;;;;;;;31.05;27.60;;;8.50;86.30;;;;;;5009757;28;20080;-78
2021/05/20 01:53:53;;;;;;;33.20;28.17;;;8.50;86.50;;;;;;5019461;28;20034;-79
2021/05/20 01:56:20;;;;;;;32.83;26.17;;;8.50;86.50;;;;;;5028484;28;20056;-78
2021/05/20 01:58:47;;;;;;;30.08;25.35;;;8.60;86.50;;;;;;5023999;28;20077;-79
2021/05/20 02:01:13;;;;;;;30.10;26.80;;;8.50;86.50;;;;;;5002650;28;20120;-78
2021/05/20 02:03:39;;;;;;;29.30;25.33;;;8.40;86.50;;;;;;5001037;28;20532;-79
2021/05/20 02:06:06;;;;;;;28.67;25.10;;;8.50;86.60;;;;;;5000672;28;20474;-80
2021/05/20 02:08:34;;;;;;;30.05;25.65;;;8.50;86.70;;;;;;4999773;28;20093;-79
2021/05/20 02:11:00;;;;;;;29.55;25.20;;;8.50;86.90;;;;;;5007574;28;20037;-80
2021/05/20 02:13:27;;;;;;;32.00;27.50;;;8.40;86.90;;;;;;5006729;28;20022;-79
2021/05/20 02:15:53;;;;;;;31.48;25.55;;;8.40;86.90;;;;;;5023837;28;20064;-78
2021/05/20 02:18:18;;;;;;;30.60;26.85;;;8.40;86.90;;;;;;5024082;28;20057;-79
2021/05/20 02:20:45;;;;;;;29.38;24.25;;;8.40;87.00;;;;;;5025910;28;20057;-78
2021/05/20 02:23:15;;;;;;;33.85;27.73;;;8.40;87.00;;;;;;5028218;28;20033;-77
2021/05/20 02:25:41;;;;;;;30.65;26.38;;;8.40;87.20;;;;;;5027798;28;20045;-78
2021/05/20 02:28:07;;;;;;;32.50;26.63;;;8.40;87.20;;;;;;5023007;28;20045;-77
2021/05/20 02:30:33;;;;;;;31.58;27.50;;;8.40;87.20;;;;;;5005679;28;20030;-81
2021/05/20 02:32:59;;;;;;;28.58;24.20;;;8.40;87.30;;;;;;5001441;28;20030;-78
2021/05/20 02:35:25;;;;;;;31.75;27.02;;;8.30;87.40;;;;;;4998923;28;20041;-79
2021/05/20 02:37:51;;;;;;;29.75;25.50;;;8.30;87.30;;;;;;5005945;28;20029;-78
2021/05/20 02:40:18;;;;;;;32.03;25.60;;;8.20;87.20;;;;;;4997360;28;20465;-81
2021/05/20 02:42:44;;;;;;;28.80;24.63;;;8.20;87.40;;;;;;5016289;28;20037;-78
2021/05/20 02:45:14;;;;;;;30.88;25.55;;;8.20;87.30;;;;;;5003353;28;20042;-77
2021/05/20 02:47:40;;;;;;;30.35;26.65;;;8.20;87.30;;;;;;5015338;28;20398;-77
2021/05/20 02:50:06;;;;;;;32.78;26.73;;;8.10;87.40;;;;;;5029360;28;20080;-79
2021/05/20 02:52:32;;;;;;;29.88;25.85;;;8.10;87.50;;;;;;5017559;28;20022;-79
2021/05/20 02:54:58;;;;;;;31.38;26.42;;;8.20;87.70;;;;;;5004344;28;20042;-80
2021/05/20 02:57:24;;;;;;;29.90;25.63;;;8.10;87.70;;;;;;5011485;28;20037;-79
2021/05/20 02:59:50;;;;;;;30.95;25.60;;;8.10;87.70;;;;;;5025284;28;20054;-79
2021/05/20 03:02:16;;;;;;;31.85;26.73;;;8.10;87.70;;;;;;5021982;28;20079;-78
2021/05/20 03:04:42;;;;;;;32.15;28.15;;;8.10;87.60;;;;;;5018655;28;20513;-82
2021/05/20 03:07:08;;;;;;;31.98;26.70;;;8.10;87.70;;;;;;5020844;28;20101;-79
2021/05/20 03:09:34;;;;;;;30.75;27.17;;;8.10;87.60;;;;;;5025396;28;20285;-78
2021/05/20 03:12:01;;;;;;;30.60;26.85;;;8.10;87.70;;;;;;5024554;28;20026;-79
2021/05/20 03:14:27;;;;;;;34.25;27.85;;;8.10;87.80;;;;;;4998586;28;20373;-77
2021/05/20 03:16:54;;;;;;;28.77;25.65;;;8.10;87.80;;;;;;5030171;28;20041;-78
2021/05/20 03:19:20;;;;;;;32.88;27.20;;;8.10;87.80;;;;;;5012867;28;20528;-77
2021/05/20 03:21:46;;;;;;;32.83;26.35;;;8.10;87.70;;;;;;5024631;28;20037;-78
2021/05/20 03:24:12;;;;;;;31.02;26.38;;;8.00;87.80;;;;;;5024032;28;20087;-78
2021/05/20 03:26:38;;;;;;;30.83;26.48;;;8.00;87.80;;;;;;5026349;28;20533;-77
2021/05/20 03:29:04;;;;;;;31.15;25.25;;;8.00;87.90;;;;;;5025484;28;20116;-78
2021/05/20 03:31:30;;;;;;;29.30;24.95;;;7.90;87.90;;;;;;5026250;28;20070;-78
2021/05/20 03:33:56;;;;;;;29.30;25.30;;;7.90;87.90;;;;;;5016884;28;20128;-75
2021/05/20 03:36:22;;;;;;;29.50;25.13;;;7.90;87.80;;;;;;5024569;28;20116;-78
2021/05/20 03:38:47;;;;;;;30.10;24.75;;;7.70;87.70;;;;;;5026216;28;20115;-78
2021/05/20 03:41:13;;;;;;;28.60;24.48;;;7.80;87.70;;;;;;5018809;28;20401;-78
2021/05/20 03:43:39;;;;;;;28.20;23.90;;;7.80;87.70;;;;;;5019562;28;20037;-82
2021/05/20 03:46:06;;;;;;;32.67;24.77;;;7.80;87.60;;;;;;5020762;28;20469;-79
2021/05/20 03:48:32;;;;;;;31.85;26.50;;;7.70;87.50;;;;;;5025261;28;20037;-78
2021/05/20 03:50:58;;;;;;;31.77;24.90;;;7.80;87.60;;;;;;5009669;28;20036;-77
2021/05/20 03:53:29;;;;;;;30.63;25.95;;;7.80;87.70;;;;;;5030332;28;20030;-77
2021/05/20 03:55:56;;;;;;;29.98;25.17;;;7.80;87.70;;;;;;5017271;28;20038;-79
2021/05/20 03:58:21;;;;;;;31.95;26.40;;;7.80;87.70;;;;;;5016903;28;20053;-79
2021/05/20 04:00:47;;;;;;;27.83;24.42;;;7.80;87.80;;;;;;5012488;28;20033;-76
2021/05/20 04:03:29;;;;;;;30.08;24.40;;;7.90;87.70;;;;;;5026872;28;20436;-77
2021/05/20 04:06:00;;;;;;;29.20;25.10;;;7.80;87.70;;;;;;5026772;28;20121;-78
2021/05/20 04:08:26;;;;;;;29.20;25.08;;;7.90;87.70;;;;;;5029330;28;20322;-78
2021/05/20 04:10:52;;;;;;;30.85;26.15;;;7.90;87.60;;;;;;5027225;28;20088;-80
2021/05/20 04:13:34;;;;;;;27.05;23.35;;;7.90;87.50;;;;;;5017367;28;20034;-79
2021/05/20 04:16:02;;;;;;;28.08;22.90;;;8.00;87.20;;;;;;5024084;28;20137;-80
2021/05/20 04:18:27;;;;;;;27.00;22.13;;;8.00;87.10;;;;;;5023406;28;20033;-78
2021/05/20 04:20:53;;;;;;;27.17;23.60;;;8.00;86.90;;;;;;5021224;28;20469;-79
2021/05/20 04:23:20;;;;;;;25.90;22.42;;;7.90;86.70;;;;;;5018252;28;20156;-77
2021/05/20 04:25:47;;;;;;;27.00;22.80;;;8.00;86.70;;;;;;5024074;28;20485;-84
2021/05/20 04:28:13;;;;;;;26.38;23.55;;;8.10;86.60;;;;;;5026539;28;20156;-78
2021/05/20 04:30:39;;;;;;;27.38;24.17;;;8.10;86.60;;;;;;5024656;28;20400;-78
2021/05/20 04:33:05;;;;;;;26.67;22.92;;;8.10;86.60;;;;;;5023596;28;20051;-78
2021/05/20 04:35:32;;;;;;;26.27;22.35;;;8.20;86.60;;;;;;5017755;28;20037;-78
2021/05/20 04:37:58;;;;;;;27.52;23.02;;;8.20;86.50;;;;;;5022560;28;20041;-78
2021/05/20 04:40:24;;;;;;;25.40;22.38;;;8.20;86.50;;;;;;5019099;28;20474;-80
2021/05/20 04:42:51;;;;;;;27.65;22.48;;;8.30;86.50;;;;;;5020460;28;20037;-79
2021/05/20 04:45:17;;;;;;;26.30;22.17;;;8.30;86.40;;;;;;5017273;28;20041;-80
2021/05/20 04:47:44;;;;;;;27.80;24.35;;;8.40;86.40;;;;;;5024193;28;20171;-75
2021/05/20 04:50:11;;;;;;;29.20;24.85;;;8.50;86.40;;;;;;5019714;28;20042;-76
2021/05/20 04:52:36;;;;;;;27.08;24.17;;;8.50;86.40;;;;;;5022453;28;20029;-77
2021/05/20 04:55:03;;;;;;;26.33;23.50;;;8.60;86.10;;;;;;5021129;28;20064;-76
2021/05/20 04:57:28;;;;;;;31.17;24.25;;;8.60;86.20;;;;;;5019375;28;20384;-77
2021/05/20 04:59:54;;;;;;;27.55;24.58;;;8.60;86.20;;;;;;5005685;28;20503;-77
2021/05/20 05:02:20;;;;;;;29.50;26.33;;;8.70;86.30;;;;;;5010052;28;20034;-82
2021/05/20 05:04:45;;;;;;;28.83;25.83;;;8.80;86.30;;;;;;5020676;28;20501;-77
2021/05/20 05:07:11;;;;;;;29.75;25.23;;;8.90;86.30;;;;;;5015325;28;20045;-77
2021/05/20 05:09:37;;;;;;;26.63;23.77;;;9.00;86.20;;;;;;5014445;28;20156;-78
2021/05/20 05:12:03;;;;;;;26.90;24.10;;;9.10;86.30;;;;;;5015354;28;20084;-77
2021/05/20 05:14:28;;;;;;;28.00;24.73;;;9.10;86.30;;;;;;5020281;28;20508;-77
2021/05/20 05:16:54;;;;;;;29.90;24.08;;;9.20;86.30;;;;;;5017161;28;20033;-81
2021/05/20 05:19:20;;;;;;;25.73;21.15;;;9.90;86.60;;;;;;5017074;28;20033;-77
2021/05/20 05:21:46;;;;;;;20.55;16.75;;;11.60;83.00;;;;;;5017623;28;20048;-77
2021/05/20 05:24:12;;;;;;;20.20;15.38;;;13.00;75.70;;;;;;5021533;28;20409;-77
2021/05/20 05:26:37;;;;;;;18.50;13.63;;;14.30;71.60;;;;;;5020751;28;20477;-77
2021/05/20 05:29:03;;;;;;;15.45;12.52;;;15.20;66.50;;;;;;5023213;28;20033;-78
2021/05/20 05:31:32;;;;;;;16.15;12.13;;;16.30;64.60;;;;;;5020169;28;20481;-83
2021/05/20 05:33:57;;;;;;;16.10;12.77;;;17.10;59.70;;;;;;5018716;28;20038;-79
2021/05/20 05:36:24;;;;;;;17.75;11.35;;;17.70;56.90;;;;;;5024236;28;20397;-77
2021/05/20 05:38:49;;;;;;;15.90;10.40;;;18.00;56.00;;;;;;5017956;28;20485;-72
2021/05/20 05:41:15;;;;;;;15.90;11.05;;;18.10;55.00;;;;;;5021386;28;20037;-72
2021/05/20 05:43:42;;;;;;;15.43;10.60;;;18.20;54.90;;;;;;5020330;28;20056;-72
2021/05/20 05:46:07;;;;;;;13.35;9.77;;;17.90;55.60;;;;;;5011227;28;20091;-72
2021/05/20 05:48:33;;;;;;;16.95;11.18;;;18.10;55.00;;;;;;5031413;28;20116;-73
2021/05/20 05:50:59;;;;;;;17.40;11.20;;;17.80;55.40;;;;;;5021951;28;20041;-73
2021/05/20 05:53:25;;;;;;;15.65;10.88;;;17.40;57.60;;;;;;5014458;28;20040;-74
2021/05/20 05:55:51;;;;;;;15.30;10.18;;;16.50;58.80;;;;;;5013220;28;20030;-73
2021/05/20 05:58:18;;;;;;;16.33;11.32;;;15.50;62.10;;;;;;5020966;28;20496;-73
2021/05/20 06:00:46;;;;;;;15.80;11.00;;;14.60;65.40;;;;;;5017255;28;20045;-72
2021/05/20 06:03:12;;;;;;;17.92;11.02;;;14.00;68.40;;;;;;5018229;28;20374;-72
2021/05/20 06:05:37;;;;;;;21.02;11.85;;;13.50;70.00;;;;;;5020549;28;20046;-72
2021/05/20 06:08:03;;;;;;;19.50;12.05;;;13.10;72.00;;;;;;5021546;28;20030;-73
2021/05/20 06:10:30;;;;;;;17.17;12.10;;;13.00;72.30;;;;;;5015316;28;20037;-73
2021/05/20 06:12:55;;;;;;;15.77;11.32;;;12.80;73.90;;;;;;5013563;28;20045;-73
2021/05/20 06:15:21;;;;;;;16.63;11.15;;;12.80;73.90;;;;;;5015900;28;20061;-72
2021/05/20 06:17:47;;;;;;;17.02;11.85;;;12.80;74.30;;;;;;5022303;28;20097;-73
2021/05/20 06:20:12;;;;;;;17.02;12.27;;;12.80;74.10;;;;;;5009677;28;20094;-78
2021/05/20 06:22:38;;;;;;;18.25;11.93;;;12.70;74.70;;;;;;5013476;28;20037;-72
2021/05/20 06:25:05;;;;;;;19.55;12.63;;;12.80;74.50;;;;;;5028550;28;20041;-72
2021/05/20 06:27:30;;;;;;;20.58;11.50;;;12.70;74.30;;;;;;5024571;28;20060;-75
2021/05/20 06:29:57;;;;;;;20.38;11.73;;;13.00;74.60;;;;;;5024346;28;20060;-72
2021/05/20 06:32:23;;;;;;;13.77;10.07;;;13.10;74.20;;;;;;5015716;28;20045;-72
2021/05/20 06:34:49;;;;;;;19.88;11.32;;;13.20;73.90;;;;;;5015111;28;20030;-72
2021/05/20 06:37:15;;;;;;;17.45;11.20;;;13.30;74.30;;;;;;5017153;28;20040;-72
2021/05/20 06:39:42;;;;;;;16.65;11.05;;;13.40;74.40;;;;;;5020555;28;20029;-71
2021/05/20 06:42:10;;;;;;;20.02;11.45;;;13.50;73.40;;;;;;5022324;28;20037;-77
2021/05/20 06:44:39;;;;;;;21.98;11.55;;;13.60;72.90;;;;;;5016879;28;20050;-71
2021/05/20 06:47:05;;;;;;;18.70;11.82;;;13.60;73.40;;;;;;5011806;28;20044;-73
2021/05/20 06:49:31;;;;;;;19.88;11.43;;;13.70;73.00;;;;;;5003241;28;20389;-72
2021/05/20 06:51:57;;;;;;;16.48;10.48;;;13.90;72.70;;;;;;5012306;28;20056;-73
2021/05/20 06:54:23;;;;;;;15.88;10.13;;;14.10;72.90;;;;;;5016959;28;20129;-74
2021/05/20 06:56:56;;;;;;;15.45;9.95;;;14.20;71.70;;;;;;5013592;28;20060;-73
2021/05/20 07:02:06;;;;;;;17.23;10.23;;;14.30;71.40;;;;;;5024165;28;20043;-74
2021/05/20 07:04:32;;;;;;;17.63;10.50;;;14.50;71.10;;;;;;5012219;28;20132;-72
2021/05/20 07:07:06;;;;;;;16.92;9.95;;;14.60;71.70;;;;;;5009979;28;20077;-74
2021/05/20 07:09:34;;;;;;;14.10;10.02;;;14.80;71.00;;;;;;5015997;28;20034;-73
2021/05/20 07:12:02;;;;;;;17.92;9.70;;;15.00;70.80;;;;;;5019877;28;20386;-74
2021/05/20 07:14:28;;;;;;;14.52;10.02;;;15.10;70.40;;;;;;4998283;28;20522;-73
2021/05/20 07:16:54;;;;;;;19.45;10.98;;;15.20;68.90;;;;;;5006526;28;20129;-74
2021/05/20 07:19:20;;;;;;;17.23;11.48;;;15.20;69.70;;;;;;5005902;28;20377;-76
2021/05/20 07:21:47;;;;;;;17.23;11.88;;;15.50;68.70;;;;;;5008497;28;20449;-72
2021/05/20 07:24:12;;;;;;;20.20;13.98;;;15.60;68.20;;;;;;5015575;28;20130;-73
2021/05/20 07:26:38;;;;;;;22.08;16.40;;;15.50;68.20;;;;;;5020840;28;20474;-73
2021/05/20 07:29:05;;;;;;;20.67;16.45;;;15.60;68.50;;;;;;5019233;28;20029;-72
2021/05/20 07:31:31;;;;;;;27.80;19.48;;;15.60;68.20;;;;;;5020310;28;20393;-74
2021/05/20 07:33:57;;;;;;;29.25;22.48;;;15.60;67.40;;;;;;5012788;28;20045;-74
2021/05/20 07:36:22;;;;;;;26.55;19.48;;;15.40;68.00;;;;;;5020665;28;20030;-73
2021/05/20 07:38:49;;;;;;;26.67;19.45;;;15.30;67.90;;;;;;5026524;28;20116;-75
2021/05/20 07:41:15;;;;;;;27.65;21.17;;;15.50;67.60;;;;;;5019899;28;20064;-73
2021/05/20 07:43:41;;;;;;;22.95;18.92;;;15.30;66.60;;;;;;5002619;28;20042;-76
2021/05/20 07:46:07;;;;;;;25.92;19.45;;;15.00;67.40;;;;;;5001397;28;20081;-72
2021/05/20 07:48:33;;;;;;;27.77;21.25;;;14.80;68.70;;;;;;5000671;28;20038;-72
2021/05/20 07:51:04;;;;;;;25.40;20.45;;;14.30;69.10;;;;;;5010360;28;20481;-73
2021/05/20 07:53:30;;;;;;;25.00;21.58;;;14.10;69.90;;;;;;5022428;28;20513;-72
2021/05/20 07:55:56;;;;;;;25.77;22.30;;;14.20;69.60;;;;;;5018850;28;20046;-72
2021/05/20 07:58:22;;;;;;;26.48;21.05;;;14.20;70.30;;;;;;5012169;28;20053;-73
2021/05/20 08:00:47;;;;;;;28.65;21.90;;;14.10;70.50;;;;;;5019252;28;20124;-72
2021/05/20 08:11:07;;;;;;;30.05;22.85;;;14.60;69.40;;;;;;5028055;28;20040;-73
2021/05/20 08:13:34;;;;;;;33.13;26.03;;;14.90;69.50;;;;;;5025908;28;20104;-72
2021/05/20 08:16:01;;;;;;;36.90;26.58;;;15.30;68.30;;;;;;5017467;28;20120;-72
2021/05/20 08:18:28;;;;;;;37.17;29.05;;;15.40;67.60;;;;;;5004952;28;20049;-69
2021/05/20 08:20:54;;;;;;;34.65;26.92;;;15.30;67.60;;;;;;4999567;28;20076;-71
2021/05/20 08:23:20;;;;;;;34.28;27.85;;;15.00;67.40;;;;;;5021540;28;20029;-81
2021/05/20 08:25:45;;;;;;;36.20;27.45;;;15.20;68.50;;;;;;5023845;28;20461;-81
2021/05/20 08:28:12;;;;;;;34.38;27.48;;;15.40;67.10;;;;;;5013971;28;20034;-81
2021/05/20 08:30:38;;;;;;;33.70;25.05;;;15.60;67.20;;;;;;4999275;28;20030;-80
2021/05/20 08:33:05;;;;;;;29.95;22.15;;;15.60;66.50;;;;;;5009288;28;20061;-82
2021/05/20 08:35:30;;;;;;;30.20;21.30;;;15.20;67.80;;;;;;5008328;28;20041;-80
2021/05/20 08:37:57;;;;;;;26.67;20.15;;;15.40;67.70;;;;;;5027560;28;20056;-79
2021/05/20 08:40:22;;;;;;;26.83;18.70;;;15.50;68.10;;;;;;5024974;28;20060;-81
2021/05/20 08:42:48;;;;;;;23.65;17.23;;;15.70;67.20;;;;;;5020687;28;20482;-79
2021/05/20 08:45:21;;;;;;;23.65;18.42;;;16.10;66.10;;;;;;5024484;28;20042;-79
2021/05/20 08:47:48;;;;;;;22.92;18.08;;;16.00;65.90;;;;;;5020028;28;20064;-78
2021/05/20 08:50:16;;;;;;;22.98;17.88;;;15.90;65.80;;;;;;5020027;28;20045;-80
2021/05/20 08:52:43;;;;;;;27.33;19.13;;;15.90;65.80;;;;;;5015323;28;20022;-74
2021/05/20 08:55:14;;;;;;;21.50;16.50;;;15.90;65.70;;;;;;5019349;28;20042;-75
2021/05/20 08:57:40;;;;;;;19.52;14.82;;;15.80;65.70;;;;;;5020797;28;20527;-75
2021/05/20 09:00:11;;;;;;;23.08;17.27;;;16.00;65.90;;;;;;5024196;28;20143;-72
2021/05/20 09:02:36;;;;;;;24.23;17.67;;;16.30;65.00;;;;;;5022290;28;20071;-75
2021/05/20 09:05:18;;;;;;;21.85;16.60;;;16.10;64.80;;;;;;5018771;28;20041;-73
2021/05/20 09:07:51;;;;;;;22.52;16.17;;;16.00;65.90;;;;;;5019459;28;20052;-72
2021/05/20 09:10:26;;;;;;;22.37;17.03;;;16.10;65.40;;;;;;5018270;28;20041;-72
2021/05/20 09:13:02;;;;;;;;;;;15.90;65.30;;;;;;5019779;28;20125;-72
2021/05/20 09:15:29;;;;;;;21.00;15.77;;;15.70;65.80;;;;;;5025253;28;19913;-72
2021/05/20 09:18:07;;;;;;;23.20;16.83;;;15.90;64.90;;;;;;5011518;28;20785;-72
2021/05/20 09:20:34;;;;;;;23.17;16.75;;;15.70;65.80;;;;;;5016261;28;20507;-72
2021/05/20 09:23:10;;;;;;;26.45;16.80;;;15.60;66.10;;;;;;5026396;28;20057;-72
2021/05/20 09:25:37;;;;;;;19.98;14.93;;;15.90;66.30;;;;;;5030851;28;20038;-76
2021/05/20 09:28:04;;;;;;;22.75;15.55;;;16.00;65.10;;;;;;5017193;28;20027;-74
2021/05/20 09:30:32;;;;;;;20.55;15.52;;;16.10;65.30;;;;;;5002016;28;20042;-75
2021/05/20 09:33:07;;;;;;;21.95;14.77;;;16.30;65.10;;;;;;5028357;28;20148;-77
2021/05/20 09:35:39;;;;;;;19.88;14.23;;;16.60;64.00;;;;;;5022605;28;20378;-73
2021/05/20 09:38:22;;;;;;;20.25;14.63;;;16.40;63.70;;;;;;5026488;28;20037;-73
2021/05/20 09:40:57;;;;;;;20.73;13.35;;;16.30;64.00;;;;;;5023919;28;20049;-73
2021/05/20 09:43:31;;;;;;;18.63;13.70;;;16.40;64.10;;;;;;5023187;28;20045;-73
2021/05/20 09:45:59;;;;;;;18.92;13.18;;;16.50;63.50;;;;;;5000302;28;20069;-71
2021/05/20 09:48:26;;;;;;;21.25;14.10;;;16.70;63.30;;;;;;5000382;28;20034;-72
2021/05/20 09:50:58;;;;;;;20.13;14.45;;;16.60;63.10;;;;;;4999407;28;20026;-73
2021/05/20 09:53:25;;;;;;;21.75;14.88;;;16.30;64.20;;;;;;4996443;28;20042;-72
2021/05/20 09:55:53;;;;;;;20.55;13.52;;;16.10;65.30;;;;;;4995930;28;20075;-73
2021/05/20 09:58:21;;;;;;;16.40;11.90;;;16.20;65.10;;;;;;4994822;28;20054;-75
2021/05/20 10:00:48;;;;;;;16.00;11.85;;;16.20;64.30;;;;;;4990194;28;20046;-72
2021/05/20 10:03:15;;;;;;;18.17;13.10;;;16.40;64.10;;;;;;4996639;28;20038;-71
2021/05/20 10:05:43;;;;;;;16.27;12.45;;;16.30;63.80;;;;;;5004872;28;20512;-71
2021/05/20 10:08:20;;;;;;;18.25;12.48;;;16.50;64.50;;;;;;5035758;28;20056;-72
2021/05/20 10:10:49;;;;;;;16.90;13.48;;;16.80;63.70;;;;;;5021844;28;20053;-73
2021/05/20 10:13:23;;;;;;;18.55;13.50;;;16.80;62.50;;;;;;5024378;28;20064;-71
2021/05/20 10:15:49;;;;;;;;;;;16.90;62.50;;;;;;5025958;28;20033;-72
2021/05/20 10:18:24;;;;;;;23.88;17.27;;;16.90;61.50;;;;;;5007073;28;20254;-72
2021/05/20 10:20:55;;;;;;;21.02;16.42;;;17.00;61.70;;;;;;5006662;28;20034;-71
2021/05/20 10:23:23;;;;;;;22.92;18.50;;;17.10;60.20;;;;;;5009533;28;20045;-72
2021/05/20 10:25:50;;;;;;;19.05;16.38;;;16.80;61.20;;;;;;5019655;28;20084;-71
2021/05/20 10:28:18;;;;;;;20.67;15.25;;;17.10;61.50;;;;;;5010048;28;20033;-72
2021/05/20 10:30:46;;;;;;;18.50;13.75;;;17.20;61.00;;;;;;5024741;28;20037;-73
2021/05/20 10:33:14;;;;;;;22.40;17.60;;;17.20;61.30;;;;;;5026167;28;20037;-72
2021/05/20 10:35:48;;;;;;;19.45;17.33;;;16.80;61.50;;;;;;5024171;28;20033;-72
2021/05/20 10:38:24;;;;;;;17.00;14.95;;;16.70;61.60;;;;;;5019943;28;20079;-72
2021/05/20 10:40:50;;;;;;;17.25;14.60;;;16.40;63.10;;;;;;5026467;28;20033;-73
2021/05/20 10:43:20;;;;;;;19.40;16.33;;;16.50;62.40;;;;;;5022674;28;20036;-71
2021/05/20 10:46:01;;;;;;;20.50;16.70;;;16.60;63.10;;;;;;5020728;28;20318;-72
2021/05/20 10:48:28;;;;;;;18.13;14.80;;;16.70;61.90;;;;;;4995468;28;20488;-71
2021/05/20 10:50:55;;;;;;;15.35;12.40;;;16.50;63.60;;;;;;5008528;28;20029;-71
2021/05/20 10:53:41;;;;;;;15.13;12.63;;;16.60;62.50;;;;;;5019514;28;20122;-71
2021/05/20 10:56:33;;;;;;;18.13;15.68;;;16.80;62.40;;;;;;5022643;28;20453;-73
2021/05/20 10:59:00;;;;;;;17.58;15.15;;;16.40;62.50;;;;;;5018033;28;20037;-72
2021/05/20 11:01:27;;;;;;;20.48;16.20;;;16.30;63.60;;;;;;4999484;28;20022;-71
2021/05/20 11:03:57;;;;;;;17.35;13.07;;;16.50;63.40;;;;;;4998228;28;20270;-75
2021/05/20 11:06:38;;;;;;;16.38;12.77;;;16.10;63.60;;;;;;5024138;28;20041;-73
2021/05/20 11:09:10;;;;;;;17.40;12.93;;;16.60;63.80;;;;;;5022317;28;20022;-71
2021/05/20 11:11:38;;;;;;;18.40;14.02;;;16.70;63.60;;;;;;5020553;28;20041;-72
2021/05/20 11:14:06;;;;;;;16.75;10.48;;;16.70;62.40;;;;;;5023054;28;20037;-72
2021/05/20 11:16:36;;;;;;;15.27;10.60;;;16.60;62.60;;;;;;5017589;28;20112;-72
2021/05/20 11:19:24;;;;;;;15.88;10.68;;;16.70;61.70;;;;;;5001503;28;20765;-74
2021/05/20 11:22:04;;;;;;;16.50;10.75;;;16.60;62.40;;;;;;5002096;28;20121;-71
2021/05/20 11:24:35;;;;;;;15.98;10.57;;;16.70;62.80;;;;;;5018319;28;20401;-71
2021/05/20 11:27:03;;;;;;;14.85;10.90;;;16.90;63.00;;;;;;5024206;28;20112;-74
2021/05/20 11:29:31;;;;;;;12.10;9.70;;;17.10;61.90;;;;;;5021446;28;20070;-73
2021/05/20 11:32:05;;;;;;;12.95;9.20;;;17.20;61.80;;;;;;5026105;28;20041;-73
2021/05/20 11:37:06;;;;;;;12.65;9.73;;;16.90;62.30;;;;;;5002126;28;20033;-73
2021/05/20 11:39:32;;;;;;;12.23;9.77;;;17.20;62.20;;;;;;4996360;28;20080;-74
2021/05/20 11:41:59;;;;;;;14.55;9.32;;;17.10;62.30;;;;;;5004525;28;20046;-73
2021/05/20 11:44:27;;;;;;;12.70;8.35;;;17.40;61.80;;;;;;5001890;28;20455;-73
2021/05/20 11:47:09;;;;;;;11.98;7.78;;;17.30;60.10;;;;;;5022838;28;20539;-72
2021/05/20 11:49:36;;;;;;;12.93;8.05;;;17.40;60.40;;;;;;5014945;28;20033;-72
2021/05/20 11:52:08;;;;;;;11.23;7.43;;;17.60;60.00;;;;;;5016435;28;20029;-72
2021/05/20 11:54:40;;;;;;;11.80;7.97;;;17.70;59.90;;;;;;5014311;28;20037;-72
2021/05/20 11:57:10;;;;;;;10.82;7.30;;;17.60;59.70;;;;;;5026328;28;20110;-72
2021/05/20 11:59:39;;;;;;;11.05;7.22;;;17.70;59.20;;;;;;4997862;28;20093;-72
2021/05/20 12:02:06;;;;;;;13.65;7.82;;;17.80;60.60;;;;;;5014205;28;20485;-73
2021/05/20 12:04:32;;;;;;;9.73;7.20;;;17.90;56.80;;;;;;5020016;28;20069;-73
2021/05/20 12:06:59;;;;;;;12.98;7.78;;;18.10;57.70;;;;;;5021223;28;20053;-71
2021/05/20 12:09:25;;;;;;;11.40;7.07;;;18.10;58.40;;;;;;5019247;28;20580;-74
2021/05/20 12:11:51;;;;;;;10.35;7.07;;;18.30;58.20;;;;;;5035951;28;20060;-74
2021/05/20 12:14:38;;;;;;;12.60;7.32;;;18.20;58.90;;;;;;5019953;28;20473;-72
2021/05/20 12:17:10;;;;;;;12.32;7.28;;;18.10;57.70;;;;;;5021615;28;20523;-72
2021/05/20 12:19:41;;;;;;;12.68;6.60;;;17.60;58.90;;;;;;5019423;28;20030;-72
2021/05/20 12:22:13;;;;;;;10.55;6.80;;;17.40;60.70;;;;;;5021841;28;20044;-72
2021/05/20 12:24:45;;;;;;;12.20;7.53;;;17.80;59.10;;;;;;5020188;28;20041;-72
2021/05/20 12:27:16;;;;;;;10.25;7.18;;;17.70;58.30;;;;;;5017450;28;20033;-72
2021/05/20 12:29:45;;;;;;;12.43;7.05;;;17.80;59.00;;;;;;5016611;28;20040;-74
2021/05/20 12:32:32;;;;;;;10.68;6.88;;;17.80;59.00;;;;;;5013127;28;20130;-71
2021/05/20 12:35:20;;;;;;;9.50;6.78;;;17.20;59.10;;;;;;5030381;28;20042;-72
2021/05/20 12:38:08;;;;;;;10.85;6.57;;;16.80;59.50;;;;;;5002077;28;20038;-73
2021/05/20 12:40:57;;;;;;;12.02;7.07;;;16.70;60.80;;;;;;5025025;28;20501;-72
2021/05/20 12:43:28;;;;;;;10.25;6.50;;;16.80;62.10;;;;;;5020722;28;20573;-73
2021/05/20 12:46:11;;;;;;;8.57;5.63;;;16.80;61.30;;;;;;5026941;28;20212;-72
2021/05/20 12:49:00;;;;;;;9.73;5.93;;;16.80;60.00;;;;;;5000083;28;20394;-72
2021/05/20 12:51:27;;;;;;;9.30;5.70;;;16.80;58.90;;;;;;5001184;28;20026;-73